createdAt,value
2022-12-15T00:02:19.592Z,99990.81
2022-12-15T00:07:29.781Z,100010.09
2022-12-15T00:12:40.211Z,99979.16
2022-12-15T00:17:50.188Z,99956.03
2022-12-15T00:23:00.272Z,100077.13
2022-12-15T00:28:10.500Z,100079.75
2022-12-15T00:33:26.677Z,99933.47
2022-12-15T00:38:36.943Z,100081.19
2022-12-15T00:43:33.824Z,100075.41
2022-12-15T00:48:25.609Z,100018.09
2022-12-15T00:53:35.969Z,99988.16
2022-12-15T00:58:46.666Z,100102.03
2022-12-15T01:03:56.939Z,100102.41
2022-12-15T01:09:07.169Z,100005.22
2022-12-15T01:14:17.383Z,100099.91
2022-12-15T01:19:27.785Z,100124.00
2022-12-15T01:24:19.309Z,100103.31
2022-12-15T01:29:10.880Z,100131.44
2022-12-15T01:34:02.445Z,100118.66
2022-12-15T01:38:54.638Z,100118.44
2022-12-15T01:43:46.746Z,100157.59
2022-12-15T01:49:12.032Z,100162.00
2022-12-15T01:54:23.300Z,100161.19
2022-12-15T01:59:20.882Z,100136.09
2022-12-15T02:04:12.636Z,100120.75
2022-12-15T02:09:04.897Z,100062.94
2022-12-15T02:14:08.116Z,100097.75
2022-12-15T02:19:19.305Z,100108.69
2022-12-15T02:24:29.701Z,100178.56
2022-12-15T02:29:38.452Z,100060.00
2022-12-15T02:34:48.229Z,100177.28
2022-12-15T02:39:39.908Z,100111.75
2022-12-15T02:44:53.094Z,100161.66
2022-12-15T02:50:09.783Z,100160.03
2022-12-15T02:55:29.185Z,100188.38
2022-12-15T03:00:21.891Z,100091.84
2022-12-15T03:05:14.927Z,100139.28
2022-12-15T03:10:07.402Z,100130.72
2022-12-15T03:14:58.970Z,100074.78
2022-12-15T03:19:50.509Z,100156.00
2022-12-15T03:24:42.193Z,100174.72
2022-12-15T03:29:33.749Z,100217.41
2022-12-15T03:34:26.093Z,100220.69
2022-12-15T03:39:17.644Z,100171.91
2022-12-15T03:44:09.297Z,100215.00
2022-12-15T03:49:00.899Z,99993.63
2022-12-15T03:53:53.665Z,100074.84
2022-12-15T03:58:45.287Z,100206.06
2022-12-15T04:03:36.897Z,100228.13
2022-12-15T04:08:28.449Z,100211.84
2022-12-15T04:13:19.953Z,100194.41
2022-12-15T04:18:11.589Z,100223.81
2022-12-15T04:23:03.247Z,100125.41
2022-12-15T04:28:14.430Z,100244.50
2022-12-15T04:33:29.202Z,100168.41
2022-12-15T04:38:50.277Z,100204.75
2022-12-15T04:44:01.030Z,100212.53
2022-12-15T04:49:11.206Z,100242.75
2022-12-15T04:54:21.494Z,100185.34
2022-12-15T04:59:31.714Z,100225.88
2022-12-15T05:04:42.171Z,100228.75
2022-12-15T05:09:52.513Z,100273.13
2022-12-15T05:15:02.720Z,100269.63
2022-12-15T05:20:12.901Z,100257.50
2022-12-15T05:25:23.020Z,100214.22
2022-12-15T05:30:33.232Z,100143.59
2022-12-15T05:35:25.020Z,100283.53
2022-12-15T05:40:16.675Z,100277.38
2022-12-15T05:45:10.047Z,100161.34
2022-12-15T05:50:01.808Z,100291.03
2022-12-15T05:54:53.373Z,100260.91
2022-12-15T05:59:45.029Z,100250.16
2022-12-15T06:04:36.636Z,100265.34
2022-12-15T06:09:28.991Z,100303.78
2022-12-15T06:14:20.553Z,100318.28
2022-12-15T06:19:12.172Z,100247.94
2022-12-15T06:24:06.029Z,100325.22
2022-12-15T06:29:02.508Z,100321.97
2022-12-15T06:34:01.376Z,100313.41
2022-12-15T06:38:53.977Z,100244.41
2022-12-15T06:43:50.701Z,100168.53
2022-12-15T06:48:46.676Z,100239.31
2022-12-15T06:53:40.791Z,100213.81
2022-12-15T06:58:32.483Z,100314.19
2022-12-15T07:03:24.917Z,100309.25
2022-12-15T07:08:16.746Z,100227.25
2022-12-15T07:13:12.495Z,100326.50
2022-12-15T07:18:04.045Z,100267.84
2022-12-15T07:22:55.850Z,100342.91
2022-12-15T07:27:47.486Z,100344.94
2022-12-15T07:32:39.053Z,100260.41
2022-12-15T07:37:30.830Z,100182.59
2022-12-15T07:42:22.465Z,100348.19
2022-12-15T07:47:15.141Z,100349.81
2022-12-15T07:52:06.714Z,100343.63
2022-12-15T07:57:00.181Z,100154.69
2022-12-15T08:01:52.555Z,100261.41
2022-12-15T08:06:44.563Z,100370.94
2022-12-15T08:11:36.271Z,100272.63
2022-12-15T08:16:29.203Z,100270.13
2022-12-15T08:21:20.883Z,100283.78
2022-12-15T08:26:15.049Z,100130.00
2022-12-15T08:31:09.276Z,100232.94
2022-12-15T08:36:03.069Z,100387.28
2022-12-15T08:40:54.762Z,100364.59
2022-12-15T08:45:46.562Z,100391.69
2022-12-15T08:50:38.254Z,100404.69
2022-12-15T08:55:29.935Z,100411.34
2022-12-15T09:00:21.670Z,100292.53
2022-12-15T09:05:13.385Z,100419.78
2022-12-15T09:10:05.362Z,100419.59
2022-12-15T09:14:56.982Z,100430.66
2022-12-15T09:19:48.551Z,100444.84
2022-12-15T09:24:40.421Z,100451.44
2022-12-15T09:29:32.935Z,100378.28
2022-12-15T09:34:24.503Z,100460.81
2022-12-15T09:39:16.943Z,100460.19
2022-12-15T09:44:21.049Z,100462.97
2022-12-15T09:49:22.619Z,100411.97
2022-12-15T09:54:14.250Z,100469.47
2022-12-15T09:59:22.076Z,100466.88
2022-12-15T10:04:31.385Z,100247.19
2022-12-15T10:09:30.144Z,100399.81
2022-12-15T10:14:46.173Z,100487.84
2022-12-15T10:19:46.665Z,100483.34
2022-12-15T10:25:09.097Z,100486.66
2022-12-15T10:30:05.218Z,100344.16
2022-12-15T10:34:56.944Z,100477.47
2022-12-15T10:39:50.704Z,100458.03
2022-12-15T10:44:45.413Z,100385.50
2022-12-15T10:49:42.349Z,100451.88
2022-12-15T10:54:45.494Z,100453.38
2022-12-15T10:59:40.762Z,100421.56
2022-12-15T11:04:33.695Z,100380.38
2022-12-15T11:09:33.187Z,100466.84
2022-12-15T11:14:40.775Z,100461.06
2022-12-15T11:19:44.736Z,100461.69
2022-12-15T11:25:09.970Z,100433.53
2022-12-15T11:30:19.552Z,100425.97
2022-12-15T11:35:14.429Z,100456.44
2022-12-15T11:40:28.537Z,100418.13
2022-12-15T11:45:41.584Z,100454.16
2022-12-15T11:50:51.423Z,100463.16
2022-12-15T11:55:57.855Z,100300.78
2022-12-15T12:01:04.742Z,100449.22
2022-12-15T12:06:01.330Z,100435.91
2022-12-15T12:11:39.317Z,100377.09
2022-12-15T12:16:53.019Z,100396.25
2022-12-15T12:21:53.262Z,100391.59
2022-12-15T12:26:48.749Z,100418.22
2022-12-15T12:31:57.716Z,100411.28
2022-12-15T12:36:58.816Z,100338.25
2022-12-15T12:42:04.702Z,100400.31
2022-12-15T12:46:58.617Z,100386.53
2022-12-15T12:51:54.019Z,100366.50
2022-12-15T13:02:21.466Z,100338.53
2022-12-15T13:07:32.043Z,100349.22
2022-12-15T13:12:51.636Z,100347.84
2022-12-15T13:17:51.091Z,100330.53
2022-12-15T13:22:43.372Z,100248.91
2022-12-15T13:27:37.043Z,100310.94
2022-12-15T13:32:46.683Z,100275.66
2022-12-15T13:37:49.028Z,100320.28
2022-12-15T13:42:53.050Z,100299.19
2022-12-15T13:47:53.543Z,100191.44
2022-12-15T13:53:22.955Z,100191.72
2022-12-15T13:58:18.106Z,100279.28
2022-12-15T14:03:12.843Z,100282.25
2022-12-15T14:08:10.806Z,100123.66
2022-12-15T14:13:16.276Z,100266.03
2022-12-15T14:18:41.375Z,100263.47
2022-12-15T14:23:58.046Z,100255.00
2022-12-15T14:29:05.494Z,100240.53
2022-12-15T14:34:08.704Z,100262.16
2022-12-15T14:39:05.313Z,100248.38
2022-12-15T14:44:31.230Z,100165.25
2022-12-15T14:49:22.947Z,100170.78
2022-12-15T14:54:38.155Z,100244.69
2022-12-15T14:59:33.760Z,100243.31
2022-12-15T15:03:11.193Z,100279.31
2022-12-15T15:04:29.856Z,100030.53
2022-12-15T15:09:25.759Z,100146.59
2022-12-15T15:14:28.641Z,100200.38
2022-12-15T15:19:22.664Z,100253.63
2022-12-15T15:24:14.178Z,100272.69
2022-12-15T15:29:36.457Z,100286.44
2022-12-15T15:34:27.970Z,100301.53
2022-12-15T15:39:21.449Z,100308.13
2022-12-15T15:44:15.458Z,100322.00
2022-12-15T15:49:09.381Z,100294.22
2022-12-15T15:54:23.350Z,100330.03
2022-12-15T15:59:17.930Z,100337.03
2022-12-15T16:04:09.542Z,100338.78
2022-12-15T16:09:01.790Z,100304.91
2022-12-15T16:13:53.495Z,100310.34
2022-12-15T16:18:45.868Z,100252.34
2022-12-15T16:23:37.652Z,100287.66
2022-12-15T16:28:31.258Z,100344.09
2022-12-15T16:33:23.443Z,100246.22
2022-12-15T16:38:22.591Z,100310.91
2022-12-15T16:43:19.876Z,100333.66
2022-12-15T16:48:12.492Z,100305.44
2022-12-15T16:53:04.592Z,100327.44
2022-12-15T16:58:05.407Z,100115.19
2022-12-15T17:02:57.388Z,100289.28
2022-12-15T17:07:54.599Z,100344.75
2022-12-15T17:12:47.370Z,100276.59
2022-12-15T17:17:38.974Z,100364.91
2022-12-15T17:22:30.558Z,100213.63
2022-12-15T17:27:28.059Z,100287.22
2022-12-15T17:32:19.642Z,100368.06
2022-12-15T17:37:14.139Z,100129.69
2022-12-15T17:42:16.859Z,100356.59
2022-12-15T17:47:08.987Z,100349.09
2022-12-15T17:52:05.081Z,100343.81
2022-12-15T17:56:56.661Z,100360.06
2022-12-15T18:01:49.149Z,100334.34
2022-12-15T18:06:43.430Z,100286.56
2022-12-15T18:11:35.057Z,100194.88
2022-12-15T18:16:26.704Z,100367.22
2022-12-15T18:21:18.249Z,100386.19
2022-12-15T18:26:13.208Z,100406.78
2022-12-15T18:31:14.872Z,100204.06
2022-12-15T18:36:06.680Z,100341.09
2022-12-15T18:41:01.064Z,100248.31
2022-12-15T18:45:52.860Z,100353.41
2022-12-15T18:50:46.397Z,100370.97
2022-12-15T18:55:37.968Z,100357.25
2022-12-15T19:00:30.354Z,100368.31
2022-12-15T19:05:28.374Z,100350.41
2022-12-15T19:10:19.987Z,100362.38
2022-12-15T19:15:19.565Z,100300.47
2022-12-15T19:20:38.625Z,100362.97
2022-12-15T19:25:31.358Z,100366.44
2022-12-15T19:30:22.883Z,100374.59
2022-12-15T19:35:14.573Z,100347.88
2022-12-15T19:40:07.471Z,100371.47
2022-12-15T19:45:01.394Z,100241.44
2022-12-15T19:49:53.548Z,100368.69
2022-12-15T19:54:49.703Z,100294.09
2022-12-15T19:59:42.014Z,100347.31
2022-12-15T20:04:34.001Z,100381.72
2022-12-15T20:09:25.569Z,100380.34
2022-12-15T20:14:17.864Z,100377.91
2022-12-15T20:19:09.992Z,100228.09
2022-12-15T20:24:07.708Z,100247.00
2022-12-15T20:28:59.369Z,100243.31
2022-12-15T20:33:52.152Z,100325.44
2022-12-15T20:38:44.721Z,100364.25
2022-12-15T20:43:36.569Z,100366.13
2022-12-15T20:48:30.014Z,100357.16
2022-12-15T20:53:25.288Z,100274.75
2022-12-15T20:58:18.405Z,100321.28
2022-12-15T21:03:20.760Z,100365.66
2022-12-15T21:08:25.417Z,100369.94
2022-12-15T21:13:22.662Z,100305.06
2022-12-15T21:18:57.292Z,100376.34
2022-12-15T21:23:30.864Z,100374.47
2022-12-15T21:28:23.534Z,100256.34
2022-12-15T21:33:15.797Z,100342.53
2022-12-15T21:38:20.162Z,100137.81
2022-12-15T21:43:11.874Z,100353.41
2022-12-15T21:48:22.028Z,100281.22
2022-12-15T21:53:17.326Z,100381.19
2022-12-15T21:58:19.625Z,100253.63
2022-12-15T22:03:11.339Z,100383.97
2022-12-15T22:08:18.337Z,100391.88
2022-12-15T22:13:14.760Z,100266.38
2022-12-15T22:18:11.981Z,100384.66
2022-12-15T22:23:03.796Z,100392.06
2022-12-15T22:27:56.222Z,100392.13
2022-12-15T22:32:49.276Z,100397.78
2022-12-15T22:37:41.065Z,99789.28
2022-12-15T22:42:32.661Z,100402.19
2022-12-15T22:47:24.612Z,100389.41
2022-12-15T22:52:18.713Z,100397.91
2022-12-15T22:57:20.563Z,100401.75
2022-12-15T23:02:12.384Z,100390.13
2022-12-15T23:07:07.676Z,100404.53
2022-12-15T23:11:59.318Z,100347.09
2022-12-15T23:16:50.933Z,100413.75
2022-12-15T23:21:42.622Z,100330.66
2022-12-15T23:26:34.179Z,100426.81
2022-12-15T23:31:25.779Z,100369.94
2022-12-15T23:36:17.463Z,100115.53
2022-12-15T23:41:15.645Z,100327.72
2022-12-15T23:46:07.304Z,100438.31
2022-12-15T23:51:20.317Z,100398.50
2022-12-15T23:56:17.263Z,100442.28
